createdAt,value
2019-05-03T00:03:27.451Z,11.07
2019-05-03T00:08:22.024Z,11.09
2019-05-03T00:13:16.618Z,11.12
2019-05-03T00:18:11.730Z,11.15
2019-05-03T00:23:06.713Z,11.17
2019-05-03T00:28:01.842Z,11.15
2019-05-03T00:32:56.712Z,11.10
2019-05-03T00:38:12.338Z,11.08
2019-05-03T00:43:06.872Z,11.06
2019-05-03T00:48:02.001Z,11.01
2019-05-03T00:52:56.629Z,10.94
2019-05-03T00:57:52.143Z,10.95
2019-05-03T01:02:46.880Z,10.95
2019-05-03T01:07:42.225Z,11.01
2019-05-03T01:12:37.056Z,11.02
2019-05-03T01:17:33.118Z,10.95
2019-05-03T01:22:27.695Z,10.96
2019-05-03T01:27:22.462Z,11.01
2019-05-03T01:32:17.114Z,11.00
2019-05-03T01:37:11.986Z,11.04
2019-05-03T01:42:06.701Z,11.09
2019-05-03T01:47:02.980Z,10.99
2019-05-03T01:52:12.786Z,10.71
2019-05-03T01:57:07.516Z,10.47
2019-05-03T02:02:19.598Z,10.24
2019-05-03T02:07:14.245Z,10.17
2019-05-03T02:12:08.923Z,10.05
2019-05-03T02:17:03.504Z,9.99
2019-05-03T02:21:58.095Z,9.97
2019-05-03T02:26:53.002Z,10.04
2019-05-03T02:31:47.846Z,10.11
2019-05-03T02:36:42.972Z,10.18
2019-05-03T02:41:37.674Z,10.23
2019-05-03T02:46:45.266Z,10.09
2019-05-03T02:51:38.924Z,10.11
2019-05-03T02:56:35.733Z,10.16
2019-05-03T03:01:30.745Z,10.16
2019-05-03T03:06:28.107Z,10.08
2019-05-03T03:11:26.201Z,10.11
2019-05-03T03:16:24.996Z,10.06
2019-05-03T03:21:26.031Z,10.19
2019-05-03T03:26:36.439Z,10.21
2019-05-03T03:31:48.160Z,10.18
2019-05-03T03:37:03.725Z,10.20
2019-05-03T03:41:55.574Z,10.21
2019-05-03T03:46:51.142Z,10.20
2019-05-03T03:51:51.944Z,10.04
2019-05-03T03:57:03.885Z,9.95
2019-05-03T04:01:55.059Z,9.91
2019-05-03T04:06:56.098Z,9.94
2019-05-03T04:11:49.747Z,9.93
2019-05-03T04:17:05.672Z,9.86
2019-05-03T04:21:59.886Z,9.93
2019-05-03T04:27:18.753Z,9.82
2019-05-03T04:32:05.957Z,9.75
2019-05-03T04:37:00.871Z,9.72
2019-05-03T04:41:55.991Z,9.77
2019-05-03T04:46:50.840Z,9.74
2019-05-03T04:51:46.484Z,9.71
2019-05-03T04:56:41.485Z,9.64
2019-05-03T05:01:36.068Z,9.66
2019-05-03T05:06:30.655Z,9.60
2019-05-03T05:11:26.347Z,9.62
2019-05-03T05:16:21.332Z,9.60
2019-05-03T05:21:17.609Z,9.68
2019-05-03T05:26:14.459Z,9.75
2019-05-03T05:31:09.264Z,9.74
2019-05-03T05:36:04.849Z,9.86
2019-05-03T05:40:59.593Z,9.77
2019-05-03T05:45:55.688Z,9.93
2019-05-03T05:50:51.195Z,9.81
2019-05-03T05:55:51.197Z,9.93
2019-05-03T06:00:47.412Z,9.97
2019-05-03T06:05:42.007Z,10.01
2019-05-03T06:10:56.031Z,10.10
2019-05-03T06:15:55.097Z,10.20
2019-05-03T06:21:07.250Z,10.39
2019-05-03T06:26:02.295Z,10.29
2019-05-03T06:31:02.592Z,10.52
2019-05-03T06:35:57.437Z,10.63
2019-05-03T06:40:52.109Z,10.85
2019-05-03T06:45:50.507Z,11.11
2019-05-03T06:50:45.274Z,11.30
2019-05-03T06:55:40.087Z,11.59
2019-05-03T07:00:40.003Z,11.90
2019-05-03T07:05:54.857Z,12.14
2019-05-03T07:10:57.013Z,12.30
2019-05-03T07:15:52.026Z,12.01
2019-05-03T07:20:48.331Z,11.86
2019-05-03T07:25:44.797Z,11.72
2019-05-03T07:30:39.262Z,11.67
2019-05-03T07:35:35.332Z,11.56
2019-05-03T07:40:30.971Z,11.58
2019-05-03T07:45:26.271Z,11.64
2019-05-03T07:50:21.631Z,11.48
2019-05-03T07:55:17.849Z,11.47
2019-05-03T08:00:15.044Z,11.34
2019-05-03T08:05:09.844Z,11.55
2019-05-03T08:10:07.114Z,11.61
2019-05-03T08:15:01.775Z,11.66
2019-05-03T08:19:56.435Z,11.63
2019-05-03T08:24:51.059Z,11.54
2019-05-03T08:29:45.642Z,11.50
2019-05-03T08:34:42.232Z,11.53
2019-05-03T08:39:36.948Z,11.42
2019-05-03T08:44:31.821Z,11.58
2019-05-03T08:49:26.469Z,11.75
2019-05-03T08:54:21.052Z,12.02
2019-05-03T08:59:26.775Z,11.96
2019-05-03T09:04:12.422Z,11.87
2019-05-03T09:09:10.554Z,11.97
2019-05-03T09:14:07.323Z,12.33
2019-05-03T09:19:01.897Z,12.34
2019-05-03T09:23:56.697Z,12.28
2019-05-03T09:28:51.346Z,12.37
2019-05-03T09:33:46.090Z,12.45
2019-05-03T09:38:41.022Z,12.71
2019-05-03T09:43:35.764Z,12.64
2019-05-03T09:48:30.434Z,12.67
2019-05-03T09:53:26.695Z,12.74
2019-05-03T09:58:21.291Z,13.02
2019-05-03T10:03:16.011Z,13.22
2019-05-03T10:08:10.587Z,13.00
2019-05-03T10:13:14.375Z,13.11
2019-05-03T10:18:01.617Z,13.28
2019-05-03T10:22:57.925Z,13.05
2019-05-03T10:27:52.505Z,13.08
2019-05-03T10:32:48.987Z,13.09
2019-05-03T10:37:45.348Z,13.25
2019-05-03T10:42:40.137Z,13.18
2019-05-03T10:47:35.041Z,13.15
2019-05-03T10:52:38.358Z,13.16
2019-05-03T10:57:35.675Z,13.18
2019-05-03T11:02:45.363Z,13.01
2019-05-03T11:07:40.144Z,12.91
2019-05-03T11:12:34.843Z,12.80
2019-05-03T11:17:31.536Z,12.95
2019-05-03T11:22:26.138Z,13.11
2019-05-03T11:27:22.482Z,13.10
2019-05-03T11:32:35.389Z,12.83
2019-05-03T11:37:41.170Z,12.75
2019-05-03T11:42:35.772Z,13.08
2019-05-03T11:47:30.373Z,13.00
2019-05-03T11:52:25.795Z,13.12
2019-05-03T11:57:28.242Z,13.30
2019-05-03T12:02:28.917Z,13.56
2019-05-03T12:07:39.085Z,13.45
2019-05-03T12:12:39.705Z,13.24
2019-05-03T12:17:36.373Z,13.16
2019-05-03T12:22:31.727Z,13.21
2019-05-03T12:27:26.748Z,13.16
2019-05-03T12:32:21.347Z,12.70
2019-05-03T12:37:15.956Z,11.84
2019-05-03T12:42:11.240Z,11.42
2019-05-03T12:47:06.237Z,11.08
2019-05-03T12:52:00.823Z,11.06
2019-05-03T12:56:56.096Z,10.83
2019-05-03T13:01:55.716Z,11.00
2019-05-03T13:07:08.496Z,10.96
2019-05-03T13:12:05.436Z,10.89
2019-05-03T13:16:59.793Z,11.06
2019-05-03T13:21:55.596Z,11.11
2019-05-03T13:26:50.529Z,11.16
2019-05-03T13:31:58.417Z,11.44
2019-05-03T13:36:41.431Z,11.46
2019-05-03T13:41:36.105Z,11.83
2019-05-03T13:46:30.865Z,12.12
2019-05-03T13:51:25.548Z,12.46
2019-05-03T13:56:20.156Z,12.57
2019-05-03T14:01:14.906Z,12.93
2019-05-03T14:06:09.674Z,13.17
2019-05-03T14:11:04.971Z,13.48
2019-05-03T14:16:05.942Z,13.10
2019-05-03T14:21:06.022Z,12.75
2019-05-03T14:26:01.520Z,12.95
2019-05-03T14:30:56.204Z,13.29
2019-05-03T14:35:50.815Z,13.82
2019-05-03T14:40:47.337Z,14.20
2019-05-03T14:45:42.087Z,14.18
2019-05-03T14:50:36.741Z,13.66
2019-05-03T14:55:45.856Z,13.94
2019-05-03T15:00:42.098Z,14.28
2019-05-03T15:05:36.770Z,14.46
2019-05-03T15:10:31.613Z,14.58
2019-05-03T15:15:29.060Z,14.83
2019-05-03T15:20:25.513Z,14.82
2019-05-03T15:25:20.343Z,14.97
2019-05-03T15:30:15.730Z,14.88
2019-05-03T15:35:10.596Z,15.02
2019-05-03T15:40:08.153Z,14.90
2019-05-03T15:45:14.698Z,14.94
2019-05-03T15:50:10.607Z,14.55
2019-05-03T15:55:09.074Z,14.68
2019-05-03T16:00:05.686Z,14.60
2019-05-03T16:05:00.319Z,14.78
2019-05-03T16:09:55.445Z,14.96
2019-05-03T16:14:52.634Z,14.45
2019-05-03T16:19:47.837Z,14.65
2019-05-03T16:24:42.442Z,14.74
2019-05-03T16:29:37.021Z,14.73
2019-05-03T16:34:31.640Z,14.10
2019-05-03T16:39:26.982Z,13.72
2019-05-03T16:44:22.012Z,13.38
2019-05-03T16:49:16.593Z,13.38
2019-05-03T16:54:11.194Z,13.51
2019-05-03T16:59:05.909Z,13.04
2019-05-03T17:04:02.185Z,12.97
2019-05-03T17:09:05.216Z,12.95
2019-05-03T17:13:59.870Z,12.86
2019-05-03T17:18:55.167Z,12.79
2019-05-03T17:23:50.052Z,12.80
2019-05-03T17:28:44.896Z,12.79
2019-05-03T17:33:50.719Z,12.79
2019-05-03T17:38:35.759Z,12.81
2019-05-03T17:43:32.009Z,12.73
2019-05-03T17:48:26.613Z,12.65
2019-05-03T17:53:22.845Z,12.50
2019-05-03T17:58:28.289Z,12.41
2019-05-03T18:03:25.781Z,12.43
2019-05-03T18:08:22.344Z,12.24
2019-05-03T18:13:16.958Z,12.10
2019-05-03T18:18:11.619Z,12.00
2019-05-03T18:23:06.284Z,12.02
2019-05-03T18:28:00.899Z,12.00
2019-05-03T18:32:55.505Z,11.91
2019-05-03T18:37:59.345Z,11.87
2019-05-03T18:42:55.579Z,11.84
2019-05-03T18:47:50.171Z,11.78
2019-05-03T18:52:44.976Z,11.75
2019-05-03T18:57:39.918Z,11.74
2019-05-03T19:02:34.519Z,11.65
2019-05-03T19:07:38.205Z,11.58
2019-05-03T19:12:32.545Z,11.53
2019-05-03T19:17:28.867Z,11.53
2019-05-03T19:22:24.956Z,11.38
2019-05-03T19:27:19.657Z,11.20
2019-05-03T19:32:14.976Z,11.29
2019-05-03T19:37:09.851Z,11.11
2019-05-03T19:42:04.433Z,10.78
2019-05-03T19:46:59.035Z,10.60
2019-05-03T19:51:54.536Z,10.56
2019-05-03T19:56:49.301Z,10.40
2019-05-03T20:01:51.388Z,10.22
2019-05-03T20:06:51.496Z,10.18
2019-05-03T20:11:46.136Z,10.11
2019-05-03T20:16:40.763Z,10.07
2019-05-03T20:21:36.231Z,10.10
2019-05-03T20:26:30.835Z,10.05
2019-05-03T20:31:25.431Z,9.98
2019-05-03T20:36:20.054Z,9.90
2019-05-03T20:41:14.959Z,9.79
2019-05-03T20:46:11.345Z,9.56
2019-05-03T20:51:05.925Z,9.44
2019-05-03T20:56:00.528Z,9.37
2019-05-03T21:00:55.208Z,9.23
2019-05-03T21:05:49.791Z,9.15
2019-05-03T21:10:44.940Z,9.09
2019-05-03T21:15:57.217Z,9.27
2019-05-03T21:20:58.988Z,9.25
2019-05-03T21:26:13.687Z,9.09
2019-05-03T21:31:08.298Z,8.98
2019-05-03T21:36:04.598Z,8.93
2019-05-03T21:40:59.399Z,8.90
2019-05-03T21:45:55.627Z,8.94
2019-05-03T21:50:50.213Z,8.86
2019-05-03T21:55:44.942Z,8.91
2019-05-03T22:00:46.956Z,8.96
2019-05-03T22:05:52.765Z,9.01
2019-05-03T22:10:37.859Z,9.09
2019-05-03T22:15:36.758Z,9.17
2019-05-03T22:20:34.921Z,9.17
2019-05-03T22:25:30.976Z,9.11
2019-05-03T22:30:26.865Z,9.08
2019-05-03T22:35:21.720Z,9.03
2019-05-03T22:40:16.302Z,9.02
2019-05-03T22:45:12.634Z,9.05
2019-05-03T22:50:07.367Z,9.10
2019-05-03T22:55:01.951Z,9.17
2019-05-03T22:59:56.610Z,9.39
2019-05-03T23:04:51.206Z,9.34
2019-05-03T23:09:45.784Z,9.25
2019-05-03T23:14:40.391Z,9.22
2019-05-03T23:19:36.625Z,9.16
2019-05-03T23:24:31.223Z,9.17
2019-05-03T23:29:25.800Z,9.27
2019-05-03T23:34:20.390Z,9.36
2019-05-03T23:39:14.998Z,9.42
2019-05-03T23:44:09.578Z,9.47
2019-05-03T23:49:04.223Z,9.66
2019-05-03T23:53:58.820Z,9.53
2019-05-03T23:58:55.031Z,9.38
